Ava, NY

6:43 AM EDT on August 20, 2014 (GMT -0400)
Willow Drive (Lee, NY) | Change Station
CLOSE
Current Station
Personal Weather Station
Location: Rome, NY
Elevation: 564 ft
Nearby Weather Stations

Elev 564 ft 43.28 °N, 75.47 °W | Updated 1 second ago

Clear
Clear
61.3 °F
Feels Like 61.3 °F
N
1.0
Wind Variable Wind from SE
Gusts 2.2 mph

Today
High -- | Low -- °F
--% Chance of Precip.
Yesterday
High -- | Low -- °F
Precip. -- in
6:12 AM 7:56 PM
Waning Crescent, 22% visible
Pressure 29.92 in
Visibility 10.0 miles
Clouds Clear
Dew Point 57 °F
Humidity 85%
Rainfall 0.00 in
Snow Depth Not available.
UV 0 out of 12
Pollen 9.00 out of 12
PM2.5 Good
Flu Activity Not available.
METAR KRME 200953Z AUTO 11005KT 10SM CLR 15/12 A2993 RMK AO2 SLP132 T01500122 TSNO

More Conditions Fewer Conditions

Pressure 29.92 in
Visibility 10.0 miles
Clouds Clear
Dew Point 57 °F
Humidity 85%
Rainfall 0.00 in
Snow Depth Not available.
UV 0 out of 12
Pollen 9.00 out of 12
PM2.5 Good
Flu Activity Not available.
METAR KRME 200953Z AUTO 11005KT 10SM CLR 15/12 A2993 RMK AO2 SLP132 T01500122 TSNO

More Conditions Fewer Conditions

10-Day Weather Forecast

Almanac

Astronomy

Aug. 20, 2014 Rise Set
Actual Time 6:12 AM EDT 7:56 PM EDT
Civil Twilight 5:42 AM EDT 8:27 PM EDT
Nautical Twilight 5:05 AM EDT 9:03 PM EDT
Astronomical Twilight 4:25 AM EDT 9:43 PM EDT
Moon 1:47 AM EDT 4:43 PM EDT
Length of Visible Light 14h 45m
Length of Day
13h 44m
Tomorrow will be 2m 42s shorter.
Waning Crescent, 22% of the Moon is Illuminated
Today
Waning Crescent
Aug 25
New
Sep 2
First Quarter
Sep 8
Full
Sep 15
Last Quarter

Today's Extremes

State Highs State Lows

Community

WunderPhotos

Upload Photos

1,745,605 photos uploaded!

Nearby

Air Quality

  Air Quality AQ Index Pollutant
Yesterday Good
PM2.5
Yesterday Good
OZONE
Current Good
PM2.5
Wednesday Good
PM2.5
Wednesday Good
OZONE

Snow Depth

Station Depth Elevation
No new snow has been reported.

Earthquake Activity

City Distance Mag. Time & Date
No recent earthquake activity has been reported nearby.
Minimum magnitude displayed is 2.5.

Coastal Water Temperatures

Place Temperature
No Stations Reporting

Nearby Weather Stations